createdAt,value
2019-04-26T00:00:20.007Z,2.50
2019-04-26T00:01:19.987Z,2.70
2019-04-26T00:02:19.954Z,3.00
2019-04-26T00:03:19.938Z,2.40
2019-04-26T00:04:19.939Z,2.70
2019-04-26T00:05:19.896Z,2.50
2019-04-26T00:06:19.900Z,2.40
2019-04-26T00:07:19.883Z,2.70
2019-04-26T00:08:19.841Z,2.70
2019-04-26T00:09:19.824Z,2.70
2019-04-26T00:10:19.806Z,3.10
2019-04-26T00:11:19.785Z,3.00
2019-04-26T00:12:19.766Z,2.90
2019-04-26T00:13:19.749Z,3.10
2019-04-26T00:14:19.729Z,3.00
2019-04-26T00:15:19.711Z,2.90
2019-04-26T00:16:19.690Z,3.10
2019-04-26T00:17:19.673Z,2.90
2019-04-26T00:18:19.653Z,3.00
2019-04-26T00:19:19.633Z,2.90
2019-04-26T00:20:19.614Z,3.00
2019-04-26T00:21:19.596Z,2.90
2019-04-26T00:22:52.786Z,3.20
2019-04-26T00:23:19.557Z,3.40
2019-04-26T00:24:19.538Z,3.40
2019-04-26T00:25:19.524Z,3.10
2019-04-26T00:26:19.704Z,3.90
2019-04-26T00:27:19.481Z,3.60
2019-04-26T00:28:19.464Z,3.40
2019-04-26T00:29:19.454Z,4.10
2019-04-26T00:30:52.751Z,3.30
2019-04-26T00:31:19.405Z,3.80
2019-04-26T00:32:52.596Z,3.40
2019-04-26T00:33:19.481Z,3.30
2019-04-26T00:34:19.623Z,3.70
2019-04-26T00:35:19.917Z,3.90
2019-04-26T00:36:19.309Z,3.40
2019-04-26T00:37:20.198Z,3.80
2019-04-26T00:38:20.271Z,3.50
2019-04-26T00:39:20.264Z,3.60
2019-04-26T00:40:20.244Z,4.10
2019-04-26T00:41:19.217Z,3.90
2019-04-26T00:42:19.198Z,3.90
2019-04-26T00:43:19.177Z,3.80
2019-04-26T00:44:19.157Z,4.20
2019-04-26T00:45:19.147Z,4.10
2019-04-26T00:46:19.121Z,4.00
2019-04-26T00:47:19.155Z,4.30
2019-04-26T00:48:19.083Z,4.30
2019-04-26T00:49:19.240Z,4.70
2019-04-26T00:50:19.134Z,4.70
2019-04-26T00:51:52.236Z,4.50
2019-04-26T00:52:19.477Z,5.00
2019-04-26T00:53:19.649Z,5.10
2019-04-26T00:54:20.057Z,5.40
2019-04-26T00:55:19.645Z,6.20
2019-04-26T00:56:20.060Z,5.90
2019-04-26T00:57:18.928Z,6.40
2019-04-26T00:58:18.894Z,7.40
2019-04-26T00:59:18.875Z,6.80
2019-04-26T01:00:19.545Z,6.70
2019-04-26T01:01:18.833Z,7.00
2019-04-26T01:02:18.816Z,7.40
2019-04-26T01:03:18.798Z,8.30
2019-04-26T01:04:18.879Z,8.20
2019-04-26T01:05:18.960Z,8.70
2019-04-26T01:06:18.860Z,9.00
2019-04-26T01:07:19.088Z,8.00
2019-04-26T01:08:19.254Z,7.60
2019-04-26T01:09:19.478Z,8.50
2019-04-26T01:10:19.671Z,8.20
2019-04-26T01:11:19.647Z,8.60
2019-04-26T01:12:19.697Z,8.50
2019-04-26T01:13:18.604Z,8.10
2019-04-26T01:14:18.584Z,7.80
2019-04-26T01:15:19.953Z,7.60
2019-04-26T01:16:18.545Z,7.50
2019-04-26T01:17:18.697Z,8.10
2019-04-26T01:18:18.510Z,7.90
2019-04-26T01:19:18.627Z,8.20
2019-04-26T01:20:18.901Z,7.80
2019-04-26T01:21:18.557Z,8.20
2019-04-26T01:22:19.359Z,8.00
2019-04-26T01:23:18.787Z,8.10
2019-04-26T01:24:19.353Z,8.10
2019-04-26T01:25:18.872Z,8.30
2019-04-26T01:26:19.224Z,8.00
2019-04-26T01:27:19.467Z,8.50
2019-04-26T01:28:19.612Z,8.50
2019-04-26T01:29:19.578Z,8.40
2019-04-26T01:30:18.384Z,8.40
2019-04-26T01:31:18.629Z,8.20
2019-04-26T01:32:19.210Z,8.40
2019-04-26T01:33:18.764Z,8.40
2019-04-26T01:34:19.254Z,8.30
2019-04-26T01:35:19.434Z,8.40
2019-04-26T01:36:19.222Z,8.00
2019-04-26T01:37:19.217Z,8.40
2019-04-26T01:38:18.119Z,8.80
2019-04-26T01:39:18.103Z,8.50
2019-04-26T01:40:18.084Z,8.40
2019-04-26T01:41:18.060Z,8.70
2019-04-26T01:42:18.041Z,8.70
2019-04-26T01:43:18.026Z,8.90
2019-04-26T01:44:18.015Z,9.00
2019-04-26T01:45:17.982Z,8.60
2019-04-26T01:46:17.963Z,9.30
2019-04-26T01:47:17.991Z,8.90
2019-04-26T01:48:17.930Z,8.70
2019-04-26T01:49:17.904Z,9.10
2019-04-26T01:50:17.886Z,8.80
2019-04-26T01:51:17.866Z,8.70
2019-04-26T01:52:17.846Z,9.20
2019-04-26T01:53:17.824Z,9.30
2019-04-26T01:54:17.806Z,9.80
2019-04-26T01:55:17.786Z,9.00
2019-04-26T01:56:17.768Z,8.60
2019-04-26T01:57:17.747Z,9.80
2019-04-26T01:58:17.737Z,9.30
2019-04-26T01:59:17.709Z,9.60
2019-04-26T02:00:17.687Z,9.60
2019-04-26T02:01:17.678Z,9.30
2019-04-26T02:02:17.669Z,9.60
2019-04-26T02:04:07.208Z,10.10
2019-04-26T02:05:07.187Z,10.70
2019-04-26T02:07:06.759Z,10.60
2019-04-26T02:09:45.797Z,10.70
2019-04-26T02:14:01.876Z,11.40
2019-04-26T02:15:01.852Z,11.60
2019-04-26T02:16:01.830Z,10.50
2019-04-26T02:17:01.813Z,10.30
2019-04-26T02:18:01.793Z,10.90
2019-04-26T02:19:01.771Z,11.60
2019-04-26T02:20:01.759Z,11.30
2019-04-26T02:21:01.730Z,11.50
2019-04-26T02:22:01.715Z,11.60
2019-04-26T02:23:01.691Z,11.40
2019-04-26T02:24:01.668Z,11.70
2019-04-26T02:25:01.649Z,11.60
2019-04-26T02:26:01.630Z,11.90
2019-04-26T02:27:01.609Z,12.50
2019-04-26T02:28:01.589Z,12.30
2019-04-26T02:29:01.567Z,12.10
2019-04-26T02:30:01.550Z,12.60
2019-04-26T02:31:01.530Z,11.80
2019-04-26T02:32:01.511Z,12.50
2019-04-26T02:33:01.491Z,12.40
2019-04-26T02:34:01.469Z,12.30
2019-04-26T02:35:01.533Z,12.00
2019-04-26T02:36:01.430Z,12.30
2019-04-26T02:37:01.410Z,12.10
2019-04-26T02:38:01.391Z,12.60
2019-04-26T02:39:01.369Z,12.70
2019-04-26T02:40:01.350Z,12.60
2019-04-26T02:41:01.356Z,13.00
2019-04-26T02:42:01.349Z,12.10
2019-04-26T02:43:01.289Z,12.50
2019-04-26T02:44:01.271Z,12.90
2019-04-26T02:45:01.250Z,12.60
2019-04-26T02:46:01.228Z,12.30
2019-04-26T02:47:01.223Z,12.80
2019-04-26T02:48:01.190Z,12.50
2019-04-26T02:49:01.171Z,12.60
2019-04-26T02:50:01.152Z,12.60
2019-04-26T02:51:01.131Z,12.50
2019-04-26T02:52:01.112Z,12.20
2019-04-26T02:53:01.099Z,13.10
2019-04-26T02:54:01.070Z,13.00
2019-04-26T02:55:01.052Z,12.70
2019-04-26T02:56:01.032Z,12.50
2019-04-26T02:57:01.017Z,12.70
2019-04-26T02:58:00.990Z,12.70
2019-04-26T02:59:00.973Z,12.80
2019-04-26T03:00:01.086Z,12.80
2019-04-26T03:01:00.932Z,12.50
2019-04-26T03:02:00.910Z,13.10
2019-04-26T03:03:00.894Z,12.40
2019-04-26T03:04:00.885Z,12.30
2019-04-26T03:05:00.861Z,12.20
2019-04-26T03:06:00.844Z,12.50
2019-04-26T03:07:03.470Z,12.60
2019-04-26T03:08:00.791Z,11.80
2019-04-26T03:09:00.775Z,12.70
2019-04-26T03:10:00.752Z,11.90
2019-04-26T03:11:00.738Z,12.20
2019-04-26T03:12:00.719Z,12.40
2019-04-26T03:13:00.698Z,12.40
2019-04-26T03:14:00.674Z,12.40
2019-04-26T03:15:13.383Z,12.20
2019-04-26T03:16:00.634Z,12.90
2019-04-26T03:17:00.617Z,12.20
2019-04-26T03:18:00.602Z,12.90
2019-04-26T03:19:00.600Z,13.00
2019-04-26T03:20:00.552Z,13.60
2019-04-26T03:21:00.541Z,13.30
2019-04-26T03:22:00.512Z,12.20
2019-04-26T03:23:00.493Z,12.70
2019-04-26T03:24:00.482Z,12.10
2019-04-26T03:25:00.454Z,13.20
2019-04-26T03:26:00.434Z,12.90
2019-04-26T03:27:00.417Z,12.40
2019-04-26T03:28:00.403Z,12.50
2019-04-26T03:29:00.373Z,12.50
2019-04-26T03:30:19.050Z,12.90
2019-04-26T03:31:00.348Z,13.50
2019-04-26T03:32:00.315Z,13.30
2019-04-26T03:33:00.428Z,12.00
2019-04-26T03:34:00.321Z,13.20
2019-04-26T03:35:00.279Z,13.00
2019-04-26T03:36:00.234Z,12.40
2019-04-26T03:37:00.215Z,12.30
2019-04-26T03:38:00.195Z,12.70
2019-04-26T03:39:00.176Z,12.50
2019-04-26T03:40:00.169Z,12.80
2019-04-26T03:41:00.137Z,12.70
2019-04-26T03:42:00.118Z,13.60
2019-04-26T03:43:00.094Z,12.10
2019-04-26T03:44:00.077Z,12.60
2019-04-26T03:45:00.073Z,12.90
2019-04-26T03:46:00.035Z,13.10
2019-04-26T03:47:00.018Z,12.60
2019-04-26T03:48:00.005Z,12.20
2019-04-26T03:48:59.978Z,13.10
2019-04-26T03:49:59.958Z,12.30
2019-04-26T03:50:59.938Z,12.40
2019-04-26T03:51:59.967Z,12.40
2019-04-26T03:52:59.905Z,12.60
2019-04-26T03:53:59.877Z,12.50
2019-04-26T03:54:59.858Z,12.50
2019-04-26T03:55:59.835Z,13.00
2019-04-26T03:56:59.816Z,12.80
2019-04-26T03:57:59.799Z,12.10
2019-04-26T03:58:59.778Z,12.60
2019-04-26T03:59:59.759Z,12.60
2019-04-26T04:00:59.738Z,11.80
2019-04-26T04:01:59.717Z,12.00
2019-04-26T04:02:59.697Z,12.10
2019-04-26T04:03:59.679Z,12.60
2019-04-26T04:04:59.660Z,11.90
2019-04-26T04:05:59.638Z,12.10
2019-04-26T04:07:04.594Z,11.60
2019-04-26T04:07:59.598Z,12.00
2019-04-26T04:11:33.525Z,11.90
2019-04-26T04:13:06.582Z,11.60
2019-04-26T04:13:33.456Z,12.10
2019-04-26T04:14:33.334Z,11.70
2019-04-26T04:17:18.510Z,11.90
2019-04-26T04:18:53.971Z,12.10
2019-04-26T04:19:18.484Z,11.10
2019-04-26T04:20:18.453Z,11.30
2019-04-26T04:23:03.622Z,11.00
2019-04-26T04:24:03.601Z,11.40
2019-04-26T04:25:03.602Z,11.30
2019-04-26T04:26:03.562Z,11.40
2019-04-26T04:27:03.549Z,11.20
2019-04-26T04:28:03.576Z,10.90
2019-04-26T04:29:03.506Z,11.30
2019-04-26T04:30:03.492Z,10.60
2019-04-26T04:31:03.460Z,10.40
2019-04-26T04:32:03.553Z,11.60
2019-04-26T04:33:03.421Z,11.40
2019-04-26T04:34:03.402Z,11.20
2019-04-26T04:35:06.532Z,11.00
2019-04-26T04:36:03.359Z,11.60
2019-04-26T04:37:03.350Z,11.30
2019-04-26T04:38:09.322Z,11.10
2019-04-26T04:39:11.430Z,10.20
2019-04-26T04:40:03.293Z,10.70
2019-04-26T04:41:03.261Z,11.20
2019-04-26T04:42:03.267Z,10.70
2019-04-26T04:43:03.284Z,11.00
2019-04-26T04:44:03.210Z,10.90
2019-04-26T04:45:03.182Z,11.10
2019-04-26T04:46:03.220Z,10.70
2019-04-26T04:47:03.146Z,11.20
2019-04-26T04:48:03.122Z,10.70
2019-04-26T04:49:03.192Z,10.70
2019-04-26T04:50:03.081Z,11.00
2019-04-26T04:51:03.086Z,10.60
2019-04-26T04:52:03.041Z,10.80
2019-04-26T04:53:03.020Z,10.60
2019-04-26T04:54:03.003Z,11.00
2019-04-26T04:55:07.450Z,11.60
2019-04-26T04:56:02.971Z,11.30
2019-04-26T04:57:02.941Z,11.60
2019-04-26T04:58:02.925Z,10.70
2019-04-26T04:59:02.907Z,10.80
2019-04-26T05:00:02.878Z,11.70
2019-04-26T05:01:02.867Z,11.10
2019-04-26T05:02:02.838Z,12.10
2019-04-26T05:03:02.825Z,11.90
2019-04-26T05:04:02.798Z,11.10
2019-04-26T05:05:02.780Z,11.60
2019-04-26T05:06:07.604Z,11.70
2019-04-26T05:07:02.741Z,12.40
2019-04-26T05:08:06.798Z,11.60
2019-04-26T05:09:02.697Z,11.30
2019-04-26T05:10:02.680Z,11.50
2019-04-26T05:11:02.665Z,11.80
2019-04-26T05:12:02.646Z,12.50
2019-04-26T05:13:02.617Z,10.90
2019-04-26T05:14:02.594Z,11.80
2019-04-26T05:15:02.578Z,11.40
2019-04-26T05:16:02.561Z,11.50
2019-04-26T05:17:02.541Z,11.30
2019-04-26T05:18:02.525Z,11.70
2019-04-26T05:19:02.498Z,11.60
2019-04-26T05:20:02.475Z,11.00
2019-04-26T05:21:02.458Z,11.40
2019-04-26T05:22:02.435Z,11.20
2019-04-26T05:23:02.419Z,11.10
2019-04-26T05:24:02.457Z,11.00
2019-04-26T05:25:02.379Z,11.20
2019-04-26T05:26:02.357Z,11.20
2019-04-26T05:27:02.340Z,11.30
2019-04-26T05:28:02.317Z,11.30
2019-04-26T05:29:02.303Z,11.20
2019-04-26T05:30:02.284Z,10.70
2019-04-26T05:31:02.264Z,10.50
2019-04-26T05:32:02.237Z,11.10
2019-04-26T05:33:02.219Z,11.00
2019-04-26T05:34:02.205Z,11.20
2019-04-26T05:35:02.186Z,10.80
2019-04-26T05:36:02.174Z,10.80
2019-04-26T05:37:02.139Z,10.60
2019-04-26T05:38:02.136Z,11.10
2019-04-26T05:39:02.107Z,10.80
2019-04-26T05:40:02.126Z,10.40
2019-04-26T05:41:02.067Z,10.60
2019-04-26T05:42:02.039Z,11.50
2019-04-26T05:43:02.032Z,11.30
2019-04-26T05:44:11.910Z,11.40
2019-04-26T05:45:11.888Z,11.90
2019-04-26T05:46:11.875Z,11.50
2019-04-26T05:47:11.847Z,11.00
2019-04-26T05:48:12.076Z,11.50
2019-04-26T05:49:11.809Z,11.70
2019-04-26T05:50:11.786Z,12.00
2019-04-26T05:51:11.776Z,11.30
2019-04-26T05:53:05.393Z,11.10
2019-04-26T05:55:39.667Z,11.60
2019-04-26T06:13:31.219Z,11.70
2019-04-26T06:13:58.005Z,11.90
2019-04-26T06:14:58.871Z,12.10
2019-04-26T06:15:58.083Z,12.30
2019-04-26T06:16:59.182Z,11.90
2019-04-26T06:17:57.906Z,12.30
2019-04-26T06:18:57.890Z,12.50
2019-04-26T06:19:57.865Z,11.50
2019-04-26T06:20:57.849Z,11.90
2019-04-26T06:21:57.943Z,11.50
2019-04-26T06:22:59.163Z,11.00
2019-04-26T06:23:57.902Z,11.30
2019-04-26T06:24:58.091Z,10.40
2019-04-26T06:26:00.816Z,11.10
2019-04-26T06:27:10.318Z,11.20
2019-04-26T06:27:58.366Z,10.60
2019-04-26T06:28:57.687Z,10.30
2019-04-26T06:29:58.683Z,10.80
2019-04-26T06:31:30.857Z,11.10
2019-04-26T06:31:57.972Z,10.70
2019-04-26T06:33:03.212Z,10.10
2019-04-26T06:33:58.690Z,10.20
2019-04-26T06:34:57.575Z,10.00
2019-04-26T06:35:57.561Z,11.00
2019-04-26T06:36:57.632Z,10.60
2019-04-26T06:37:57.502Z,10.40
2019-04-26T06:38:57.808Z,10.70
2019-04-26T06:39:57.811Z,10.30
2019-04-26T06:40:58.180Z,10.10
2019-04-26T06:41:58.478Z,10.50
2019-04-26T06:42:58.273Z,10.70
2019-04-26T06:43:58.292Z,10.10
2019-04-26T06:44:58.296Z,9.70
2019-04-26T06:45:58.522Z,9.90
2019-04-26T06:46:57.691Z,10.10
2019-04-26T06:47:57.303Z,9.90
2019-04-26T06:48:57.284Z,9.60
2019-04-26T06:49:57.754Z,10.20
2019-04-26T06:50:58.392Z,10.30
2019-04-26T06:52:30.432Z,9.60
2019-04-26T06:52:58.112Z,11.20
2019-04-26T06:54:30.390Z,11.30
2019-04-26T06:54:57.787Z,13.20
2019-04-26T06:55:58.157Z,10.80
2019-04-26T06:57:30.333Z,9.60
2019-04-26T06:57:57.099Z,9.80
2019-04-26T06:58:57.922Z,10.30
2019-04-26T06:59:57.525Z,10.10
2019-04-26T07:00:57.584Z,9.70
2019-04-26T07:01:57.941Z,9.50
2019-04-26T07:03:30.227Z,10.10
2019-04-26T07:04:30.196Z,10.10
2019-04-26T07:04:56.974Z,10.50
2019-04-26T07:05:58.799Z,10.00
2019-04-26T07:06:56.922Z,9.80
2019-04-26T07:07:56.902Z,9.50
2019-04-26T07:08:58.082Z,9.80
2019-04-26T07:09:57.523Z,9.10
2019-04-26T07:11:30.059Z,10.30
2019-04-26T07:11:56.872Z,10.50
2019-04-26T07:12:56.808Z,10.30
2019-04-26T07:13:56.784Z,10.20
2019-04-26T07:14:56.763Z,10.00
2019-04-26T07:15:56.742Z,10.00
2019-04-26T07:16:56.723Z,9.90
2019-04-26T07:18:29.914Z,11.40
2019-04-26T07:18:56.695Z,9.90
2019-04-26T07:19:58.536Z,9.70
2019-04-26T07:20:56.643Z,9.40
2019-04-26T07:21:56.635Z,10.10
2019-04-26T07:22:56.613Z,10.70
2019-04-26T07:23:56.602Z,11.00
2019-04-26T07:24:56.566Z,10.50
2019-04-26T07:25:56.545Z,9.20
2019-04-26T07:26:56.531Z,9.90
2019-04-26T07:28:03.726Z,10.70
2019-04-26T07:28:56.500Z,10.60
2019-04-26T07:29:56.535Z,9.50
2019-04-26T07:30:56.474Z,10.30
2019-04-26T07:31:56.430Z,10.50
2019-04-26T07:32:56.410Z,9.60
2019-04-26T07:33:56.390Z,10.00
2019-04-26T07:34:56.369Z,9.40
2019-04-26T07:35:58.816Z,10.00
2019-04-26T07:36:56.340Z,9.70
2019-04-26T07:37:56.322Z,9.80
2019-04-26T07:38:56.292Z,10.80
2019-04-26T07:39:56.282Z,10.40
2019-04-26T07:40:56.279Z,10.40
2019-04-26T07:41:56.233Z,11.00
2019-04-26T07:42:56.216Z,10.90
2019-04-26T07:43:56.195Z,10.50
2019-04-26T07:44:56.185Z,11.30
2019-04-26T07:45:56.167Z,10.40
2019-04-26T07:46:56.137Z,10.60
2019-04-26T07:47:56.116Z,10.40
2019-04-26T07:48:56.099Z,9.90
2019-04-26T07:49:56.088Z,10.20
2019-04-26T07:50:56.074Z,11.80
2019-04-26T07:51:56.046Z,10.70
2019-04-26T07:52:57.140Z,10.90
2019-04-26T07:53:56.006Z,10.90
2019-04-26T07:54:55.979Z,10.70
2019-04-26T07:57:09.003Z,11.20
2019-04-26T07:57:49.775Z,11.20
2019-04-26T07:58:49.758Z,10.40
2019-04-26T07:59:49.738Z,10.90
2019-04-26T08:00:49.719Z,10.40
2019-04-26T08:01:49.699Z,10.60
2019-04-26T08:02:49.702Z,11.30
2019-04-26T08:03:49.662Z,10.60
2019-04-26T08:04:49.647Z,11.20
2019-04-26T08:05:49.628Z,10.40
2019-04-26T08:06:49.600Z,10.60
2019-04-26T08:07:49.582Z,10.60
2019-04-26T08:08:49.561Z,10.20
2019-04-26T08:09:59.529Z,11.00
2019-04-26T08:10:49.532Z,10.20
2019-04-26T08:11:49.504Z,11.30
2019-04-26T08:12:49.493Z,10.30
2019-04-26T08:13:49.470Z,10.20
2019-04-26T08:14:49.450Z,10.80
2019-04-26T08:15:49.426Z,11.10
2019-04-26T08:16:49.414Z,12.40
2019-04-26T08:17:49.389Z,11.90
2019-04-26T08:18:49.376Z,11.90
2019-04-26T08:19:49.352Z,11.50
2019-04-26T08:20:49.335Z,11.20
2019-04-26T08:21:49.316Z,11.80
2019-04-26T08:22:52.108Z,12.40
2019-04-26T08:23:52.490Z,11.40
2019-04-26T08:24:49.254Z,10.80
2019-04-26T08:25:49.250Z,11.40
2019-04-26T08:26:49.218Z,11.70
2019-04-26T08:27:49.199Z,12.00
2019-04-26T08:29:47.822Z,11.70
2019-04-26T08:32:11.336Z,12.40
2019-04-26T08:32:39.992Z,12.50
2019-04-26T08:33:41.025Z,12.60
2019-04-26T08:34:36.823Z,12.60
2019-04-26T08:35:36.816Z,12.70
2019-04-26T08:36:36.787Z,12.40
2019-04-26T08:37:37.959Z,12.00
2019-04-26T08:38:36.767Z,11.70
2019-04-26T08:39:45.128Z,12.00
2019-04-26T08:40:36.709Z,12.00
2019-04-26T08:41:39.187Z,11.90
2019-04-26T08:42:36.682Z,11.80
2019-04-26T08:43:36.651Z,12.20
2019-04-26T08:44:36.640Z,11.60
2019-04-26T08:45:36.613Z,11.30
2019-04-26T08:46:37.340Z,11.80
2019-04-26T08:47:36.585Z,11.80
2019-04-26T08:48:36.561Z,12.20
2019-04-26T08:51:55.961Z,11.90
2019-04-26T08:52:21.564Z,11.60
2019-04-26T08:53:21.546Z,11.40
2019-04-26T08:54:21.564Z,11.80
2019-04-26T08:55:21.509Z,11.40
2019-04-26T08:56:21.485Z,11.50
2019-04-26T08:57:21.468Z,11.40
2019-04-26T08:58:21.455Z,11.60
2019-04-26T08:59:21.431Z,11.90
2019-04-26T09:00:21.430Z,11.60
2019-04-26T09:01:21.545Z,11.60
2019-04-26T09:02:21.378Z,11.20
2019-04-26T09:03:21.353Z,11.40
2019-04-26T09:04:21.378Z,10.70
2019-04-26T09:05:21.327Z,11.30
2019-04-26T09:06:21.315Z,11.50
2019-04-26T09:07:21.287Z,10.00
2019-04-26T09:08:21.264Z,10.40
2019-04-26T09:11:39.503Z,10.10
2019-04-26T09:12:08.408Z,10.10
2019-04-26T09:13:06.299Z,10.10
2019-04-26T09:14:06.236Z,10.40
2019-04-26T09:15:06.224Z,10.00
2019-04-26T09:16:06.337Z,9.80
2019-04-26T09:17:06.169Z,10.20
2019-04-26T09:18:06.904Z,9.50
2019-04-26T09:19:06.147Z,10.20
2019-04-26T09:20:08.007Z,9.70
2019-04-26T09:21:06.101Z,9.70
2019-04-26T09:22:12.764Z,8.90
2019-04-26T09:23:40.364Z,9.90
2019-04-26T09:24:08.271Z,9.80
2019-04-26T09:25:06.024Z,9.70
2019-04-26T09:27:53.031Z,9.50
2019-04-26T09:28:22.829Z,9.70
2019-04-26T09:32:20.167Z,9.40
2019-04-26T09:32:46.951Z,9.70
2019-04-26T09:33:46.920Z,9.80
2019-04-26T09:34:46.908Z,10.00
2019-04-26T09:35:46.883Z,10.20
2019-04-26T09:36:46.864Z,10.20
2019-04-26T09:37:46.845Z,9.90
2019-04-26T09:38:46.839Z,10.00
2019-04-26T09:39:46.813Z,10.50
2019-04-26T09:40:46.795Z,10.80
2019-04-26T09:41:46.774Z,10.40
2019-04-26T09:42:46.772Z,11.30
2019-04-26T09:44:19.948Z,12.10
2019-04-26T09:44:46.720Z,11.70
2019-04-26T09:45:48.108Z,10.90
2019-04-26T09:46:48.453Z,11.20
2019-04-26T09:47:46.667Z,12.40
2019-04-26T10:34:17.739Z,12.20
2019-04-26T10:35:52.519Z,11.60
2019-04-26T10:36:17.736Z,11.10
2019-04-26T10:37:17.670Z,11.70
2019-04-26T10:38:19.395Z,11.30
2019-04-26T10:39:17.644Z,11.20
2019-04-26T10:40:17.623Z,11.70
2019-04-26T10:41:18.613Z,11.10
2019-04-26T10:42:17.602Z,11.00
2019-04-26T10:43:17.588Z,11.40
2019-04-26T10:44:17.567Z,12.40
2019-04-26T10:47:04.376Z,11.40
2019-04-26T10:48:36.178Z,11.10
2019-04-26T10:49:09.064Z,11.50
2019-04-26T10:50:02.933Z,12.20
2019-04-26T10:51:03.239Z,12.10
2019-04-26T10:52:02.907Z,11.40
2019-04-26T10:53:02.894Z,11.10
2019-04-26T10:54:36.813Z,11.40
2019-04-26T10:56:48.501Z,11.20
2019-04-26T10:58:21.698Z,11.00
2019-04-26T10:58:48.463Z,11.50
2019-04-26T11:00:21.658Z,11.70
2019-04-26T11:00:52.536Z,11.40
2019-04-26T11:01:48.440Z,12.10
2019-04-26T11:03:21.607Z,11.90
2019-04-26T11:37:38.176Z,10.40
2019-04-26T11:38:04.935Z,10.80
2019-04-26T11:41:23.342Z,10.40
2019-04-26T11:41:50.054Z,10.10
2019-04-26T11:45:10.693Z,10.30
2019-04-26T11:45:35.120Z,10.20
2019-04-26T11:48:58.906Z,10.00
2019-04-26T11:49:20.119Z,11.40
2019-04-26T11:52:38.410Z,10.50
2019-04-26T11:53:06.211Z,10.80
2019-04-26T11:56:23.590Z,9.70
2019-04-26T11:56:50.561Z,10.10
2019-04-26T12:00:08.639Z,11.00
2019-04-26T12:00:35.426Z,10.10
2019-04-26T13:00:54.489Z,9.30
2019-04-26T13:02:07.006Z,9.50
2019-04-26T13:02:54.313Z,9.50
2019-04-26T13:03:33.769Z,9.00
2019-04-26T13:04:36.156Z,8.90
2019-04-26T13:05:33.730Z,9.40
2019-04-26T13:06:33.721Z,8.80
2019-04-26T13:07:33.708Z,9.20
2019-04-26T13:08:33.689Z,9.00
2019-04-26T13:09:33.670Z,8.50
2019-04-26T13:10:35.549Z,8.70
2019-04-26T13:11:33.633Z,8.20
2019-04-26T13:12:33.615Z,8.50
2019-04-26T13:13:33.599Z,8.80
2019-04-26T13:14:33.639Z,8.10
2019-04-26T13:15:33.566Z,8.70
2019-04-26T13:16:33.548Z,9.20
2019-04-26T13:17:35.801Z,9.00
2019-04-26T13:18:33.528Z,8.90
2019-04-26T13:19:33.519Z,9.30
2019-04-26T13:20:33.483Z,9.20
2019-04-26T13:21:37.355Z,9.30
2019-04-26T13:22:45.349Z,10.00
2019-04-26T13:23:33.443Z,9.30
2019-04-26T13:24:35.415Z,9.60
2019-04-26T13:25:40.175Z,9.70
2019-04-26T13:26:34.802Z,10.20
2019-04-26T13:27:33.366Z,9.40
2019-04-26T13:28:33.358Z,9.60
2019-04-26T13:29:33.336Z,10.60
2019-04-26T13:30:33.317Z,10.30
2019-04-26T13:31:33.311Z,10.40
2019-04-26T13:32:33.293Z,10.20
2019-04-26T13:33:33.277Z,10.20
2019-04-26T13:34:36.997Z,10.20
2019-04-26T13:35:33.247Z,10.60
2019-04-26T13:36:33.225Z,10.60
2019-04-26T13:37:35.679Z,10.70
2019-04-26T13:38:33.185Z,10.40
2019-04-26T13:39:33.174Z,10.40
2019-04-26T13:40:33.161Z,10.80
2019-04-26T13:41:34.940Z,10.80
2019-04-26T13:42:33.115Z,10.20
2019-04-26T13:43:33.100Z,10.80
2019-04-26T13:44:35.636Z,11.30
2019-04-26T13:45:33.076Z,11.10
2019-04-26T13:46:33.052Z,10.50
2019-04-26T13:47:33.035Z,11.10
2019-04-26T13:48:33.017Z,12.40
2019-04-26T13:49:33.001Z,11.80
2019-04-26T13:52:01.847Z,12.30
2019-04-26T13:54:05.105Z,11.80
2019-04-26T13:55:19.130Z,12.30
2019-04-26T13:55:45.876Z,11.50
2019-04-26T13:56:45.855Z,11.80
2019-04-26T13:57:46.160Z,12.00
2019-04-26T13:58:45.818Z,12.20
2019-04-26T13:59:45.813Z,12.30
2019-04-26T14:00:45.784Z,12.10
2019-04-26T14:01:45.775Z,12.60
2019-04-26T14:02:45.761Z,12.90
2019-04-26T14:03:45.736Z,13.20
2019-04-26T14:05:18.931Z,13.40
2019-04-26T14:05:45.719Z,13.10
2019-04-26T14:06:45.691Z,12.90
2019-04-26T14:07:45.692Z,12.50
2019-04-26T14:08:45.661Z,12.50
2019-04-26T14:09:45.637Z,12.80
2019-04-26T14:10:49.530Z,12.80
2019-04-26T14:13:00.262Z,12.90
2019-04-26T14:14:01.765Z,12.90
2019-04-26T14:15:33.449Z,11.90
2019-04-26T14:16:00.224Z,11.60
2019-04-26T14:17:00.206Z,12.00
2019-04-26T14:18:03.975Z,12.20
2019-04-26T14:19:00.181Z,12.70
2019-04-26T14:20:00.149Z,11.90
2019-04-26T14:21:00.252Z,12.20
2019-04-26T14:22:03.216Z,12.20
2019-04-26T14:23:00.102Z,12.60
2019-04-26T14:24:33.295Z,13.40
2019-04-26T14:25:00.120Z,13.40
2019-04-26T14:26:35.229Z,12.70
2019-04-26T14:27:33.246Z,12.70
2019-04-26T14:28:00.020Z,12.80
2019-04-26T14:29:33.917Z,13.10
2019-04-26T14:30:02.558Z,12.90
2019-04-26T14:30:59.970Z,12.50
2019-04-26T14:31:59.954Z,12.60
2019-04-26T14:32:59.946Z,12.30
2019-04-26T14:34:01.200Z,12.20
2019-04-26T14:35:01.378Z,12.40
2019-04-26T14:35:59.893Z,12.20
2019-04-26T14:37:06.435Z,11.80
2019-04-26T14:37:59.855Z,12.00
2019-04-26T14:39:06.080Z,12.20
2019-04-26T14:41:45.161Z,12.10
2019-04-26T14:42:46.980Z,12.10
2019-04-26T14:45:30.331Z,12.30
2019-04-26T14:46:30.221Z,11.90
2019-04-26T14:49:15.357Z,10.70
2019-04-26T14:50:15.341Z,10.50
2019-04-26T14:53:02.291Z,11.40
2019-04-26T14:54:00.312Z,11.50
2019-04-26T14:56:52.041Z,10.20
2019-04-26T14:57:50.366Z,10.00
2019-04-26T15:00:30.456Z,8.90
2019-04-26T15:01:32.241Z,8.90
2019-04-26T15:04:15.522Z,9.10
2019-04-26T15:05:15.520Z,9.10
2019-04-26T15:08:05.414Z,8.10
2019-04-26T15:09:00.611Z,8.40
2019-04-26T15:11:53.463Z,8.90
2019-04-26T15:12:47.006Z,9.20
2019-04-26T15:15:33.679Z,7.30
2019-04-26T15:16:30.663Z,7.20
2019-04-26T15:19:15.699Z,6.40
2019-04-26T15:20:16.789Z,6.20
2019-04-26T15:23:34.033Z,6.20
2019-04-26T15:26:23.123Z,6.10
2019-04-26T15:29:04.554Z,6.10
2019-04-26T15:31:49.269Z,7.00
2019-04-26T17:24:12.441Z,6.60
2019-04-26T17:25:45.632Z,6.40
2019-04-26T17:26:13.341Z,6.30
2019-04-26T17:27:14.450Z,6.50
2019-04-26T17:28:14.009Z,7.30
2019-04-26T17:29:12.362Z,6.40
2019-04-26T17:30:13.107Z,6.20
2019-04-26T17:31:12.516Z,6.40
2019-04-26T17:32:13.905Z,6.50
2019-04-26T17:33:13.118Z,6.30
2019-04-26T17:34:12.692Z,6.30
2019-04-26T17:35:12.249Z,6.50
2019-04-26T17:36:15.683Z,6.70
2019-04-26T17:37:17.087Z,6.00
2019-04-26T17:38:12.194Z,6.50
2019-04-26T17:39:16.925Z,6.60
2019-04-26T17:40:12.157Z,6.60
2019-04-26T17:41:13.592Z,6.30
2019-04-26T17:42:12.119Z,6.80
2019-04-26T17:43:13.292Z,6.40
2019-04-26T17:44:13.358Z,6.60
2019-04-26T17:45:12.065Z,6.80
2019-04-26T17:46:14.493Z,6.50
2019-04-26T17:47:12.031Z,6.80
2019-04-26T17:48:14.135Z,7.00
2019-04-26T17:49:12.007Z,7.00
2019-04-26T17:50:11.979Z,6.90
2019-04-26T17:51:18.958Z,6.90
2019-04-26T17:52:11.950Z,7.00
2019-04-26T17:53:20.342Z,6.50
2019-04-26T17:54:26.658Z,6.50
2019-04-26T17:55:14.257Z,6.60
2019-04-26T17:56:13.416Z,7.20
2019-04-26T17:57:14.393Z,7.50
2019-04-26T17:58:16.876Z,6.90
2019-04-26T17:59:30.234Z,6.90
2019-04-26T18:00:15.352Z,7.00
2019-04-26T18:01:12.102Z,7.00
2019-04-26T18:02:20.562Z,6.90
2019-04-26T18:03:14.845Z,7.30
2019-04-26T18:04:11.733Z,7.10
2019-04-26T18:05:12.991Z,7.30
2019-04-26T18:06:13.990Z,7.40
2019-04-26T18:07:36.200Z,6.80
2019-04-26T18:08:33.100Z,6.90
2019-04-26T18:09:37.607Z,7.10
2019-04-26T18:10:11.729Z,8.10
2019-04-26T18:11:18.896Z,7.30
2019-04-26T18:12:11.948Z,7.40
2019-04-26T18:13:16.453Z,7.70
2019-04-26T18:14:21.290Z,7.50
2019-04-26T18:15:14.348Z,7.10
2019-04-26T18:16:11.557Z,7.30
2019-04-26T18:17:11.516Z,7.40
2019-04-26T18:18:14.497Z,7.60
2019-04-26T18:19:12.772Z,8.20
2019-04-26T18:20:12.973Z,7.60
2019-04-26T18:21:12.960Z,7.60
2019-04-26T18:22:12.969Z,6.90
2019-04-26T18:23:15.420Z,7.20
2019-04-26T18:24:13.049Z,7.40
2019-04-26T18:25:13.041Z,7.70
2019-04-26T18:26:11.336Z,7.30
2019-04-26T18:27:11.325Z,9.70
2019-04-26T18:29:04.892Z,8.40
2019-04-26T18:30:08.811Z,7.40
2019-04-26T18:31:05.585Z,8.00
2019-04-26T18:32:48.959Z,7.70
2019-04-26T18:33:48.942Z,7.70
2019-04-26T18:34:48.916Z,7.40
2019-04-26T18:35:53.096Z,7.00
2019-04-26T18:36:48.878Z,7.30
2019-04-26T18:37:48.864Z,7.70